sensor_id;sensor_type;location;lat;lon;timestamp;P1;durP1;ratioP1;P2;durP2;ratioP2
13012;SDS011;22580;57.670;12.006;2023-04-08T00:01:00;0.50;;;0.50;;
13012;SDS011;22580;57.670;12.006;2023-04-08T00:03:26;0.40;;;0.40;;
13012;SDS011;22580;57.670;12.006;2023-04-08T00:05:56;2.40;;;0.60;;
13012;SDS011;22580;57.670;12.006;2023-04-08T00:08:24;0.63;;;0.50;;
13012;SDS011;22580;57.670;12.006;2023-04-08T00:10:51;0.40;;;0.40;;
13012;SDS011;22580;57.670;12.006;2023-04-08T00:13:19;0.50;;;0.50;;
13012;SDS011;22580;57.670;12.006;2023-04-08T00:15:47;0.43;;;0.43;;
13012;SDS011;22580;57.670;12.006;2023-04-08T00:18:14;1.23;;;1.13;;
13012;SDS011;22580;57.670;12.006;2023-04-08T00:20:42;0.80;;;0.80;;
13012;SDS011;22580;57.670;12.006;2023-04-08T00:23:11;0.90;;;0.77;;
13012;SDS011;22580;57.670;12.006;2023-04-08T00:25:38;0.50;;;0.50;;
13012;SDS011;22580;57.670;12.006;2023-04-08T00:28:04;0.60;;;0.60;;
13012;SDS011;22580;57.670;12.006;2023-04-08T00:30:33;0.50;;;0.43;;
13012;SDS011;22580;57.670;12.006;2023-04-08T00:33:00;0.70;;;0.70;;
13012;SDS011;22580;57.670;12.006;2023-04-08T00:35:27;0.50;;;0.50;;
13012;SDS011;22580;57.670;12.006;2023-04-08T00:37:54;0.60;;;0.60;;
13012;SDS011;22580;57.670;12.006;2023-04-08T00:40:22;0.60;;;0.43;;
13012;SDS011;22580;57.670;12.006;2023-04-08T00:42:49;0.43;;;0.43;;
13012;SDS011;22580;57.670;12.006;2023-04-08T00:45:16;0.40;;;0.40;;
13012;SDS011;22580;57.670;12.006;2023-04-08T00:47:43;0.50;;;0.50;;
13012;SDS011;22580;57.670;12.006;2023-04-08T00:50:10;0.60;;;0.60;;
13012;SDS011;22580;57.670;12.006;2023-04-08T00:52:37;0.53;;;0.53;;
13012;SDS011;22580;57.670;12.006;2023-04-08T00:55:05;0.33;;;0.33;;
13012;SDS011;22580;57.670;12.006;2023-04-08T00:57:33;0.50;;;0.50;;
13012;SDS011;22580;57.670;12.006;2023-04-08T01:00:01;0.60;;;0.60;;
13012;SDS011;22580;57.670;12.006;2023-04-08T01:02:30;0.40;;;0.40;;
13012;SDS011;22580;57.670;12.006;2023-04-08T01:05:04;0.43;;;0.43;;
13012;SDS011;22580;57.670;12.006;2023-04-08T01:07:35;0.50;;;0.50;;
13012;SDS011;22580;57.670;12.006;2023-04-08T01:10:06;0.57;;;0.53;;
13012;SDS011;22580;57.670;12.006;2023-04-08T01:12:42;0.60;;;0.60;;
13012;SDS011;22580;57.670;12.006;2023-04-08T01:15:13;0.50;;;0.47;;
13012;SDS011;22580;57.670;12.006;2023-04-08T01:17:41;0.50;;;0.50;;
13012;SDS011;22580;57.670;12.006;2023-04-08T01:20:09;0.57;;;0.57;;
13012;SDS011;22580;57.670;12.006;2023-04-08T01:22:42;0.80;;;0.80;;
13012;SDS011;22580;57.670;12.006;2023-04-08T01:25:20;0.70;;;0.70;;
13012;SDS011;22580;57.670;12.006;2023-04-08T01:27:50;0.70;;;0.70;;
13012;SDS011;22580;57.670;12.006;2023-04-08T01:30:20;0.63;;;0.63;;
13012;SDS011;22580;57.670;12.006;2023-04-08T01:32:50;0.50;;;0.50;;
13012;SDS011;22580;57.670;12.006;2023-04-08T01:35:19;0.70;;;0.60;;
13012;SDS011;22580;57.670;12.006;2023-04-08T01:37:46;0.70;;;0.70;;
13012;SDS011;22580;57.670;12.006;2023-04-08T01:40:15;0.53;;;0.53;;
13012;SDS011;22580;57.670;12.006;2023-04-08T01:42:43;0.60;;;0.60;;
13012;SDS011;22580;57.670;12.006;2023-04-08T01:45:12;0.60;;;0.60;;
13012;SDS011;22580;57.670;12.006;2023-04-08T01:47:41;0.73;;;0.73;;
13012;SDS011;22580;57.670;12.006;2023-04-08T01:50:11;0.50;;;0.50;;
13012;SDS011;22580;57.670;12.006;2023-04-08T01:52:39;0.50;;;0.50;;
13012;SDS011;22580;57.670;12.006;2023-04-08T01:55:08;1.23;;;0.60;;
13012;SDS011;22580;57.670;12.006;2023-04-08T01:57:36;0.37;;;0.37;;
13012;SDS011;22580;57.670;12.006;2023-04-08T02:00:06;0.40;;;0.40;;
13012;SDS011;22580;57.670;12.006;2023-04-08T02:02:37;0.50;;;0.50;;
13012;SDS011;22580;57.670;12.006;2023-04-08T02:05:04;0.80;;;0.53;;
13012;SDS011;22580;57.670;12.006;2023-04-08T02:07:32;0.57;;;0.57;;
13012;SDS011;22580;57.670;12.006;2023-04-08T02:09:59;1.20;;;0.67;;
13012;SDS011;22580;57.670;12.006;2023-04-08T02:12:26;0.50;;;0.50;;
13012;SDS011;22580;57.670;12.006;2023-04-08T02:14:53;0.50;;;0.50;;
13012;SDS011;22580;57.670;12.006;2023-04-08T02:17:24;0.70;;;0.70;;
13012;SDS011;22580;57.670;12.006;2023-04-08T02:20:04;0.70;;;0.70;;
13012;SDS011;22580;57.670;12.006;2023-04-08T02:22:36;0.50;;;0.50;;
13012;SDS011;22580;57.670;12.006;2023-04-08T02:25:07;0.47;;;0.47;;
13012;SDS011;22580;57.670;12.006;2023-04-08T02:27:39;0.87;;;0.87;;
13012;SDS011;22580;57.670;12.006;2023-04-08T02:30:07;0.60;;;0.60;;
13012;SDS011;22580;57.670;12.006;2023-04-08T02:32:36;0.70;;;0.70;;
13012;SDS011;22580;57.670;12.006;2023-04-08T02:35:05;0.63;;;0.63;;
13012;SDS011;22580;57.670;12.006;2023-04-08T02:37:33;0.70;;;0.70;;
13012;SDS011;22580;57.670;12.006;2023-04-08T02:40:00;0.73;;;0.73;;
13012;SDS011;22580;57.670;12.006;2023-04-08T02:42:27;0.40;;;0.40;;
13012;SDS011;22580;57.670;12.006;2023-04-08T02:44:54;1.47;;;0.63;;
13012;SDS011;22580;57.670;12.006;2023-04-08T02:47:22;0.70;;;0.70;;
13012;SDS011;22580;57.670;12.006;2023-04-08T02:49:49;0.70;;;0.70;;
13012;SDS011;22580;57.670;12.006;2023-04-08T02:52:19;1.00;;;0.90;;
13012;SDS011;22580;57.670;12.006;2023-04-08T02:54:46;0.80;;;0.80;;
13012;SDS011;22580;57.670;12.006;2023-04-08T02:57:13;0.50;;;0.50;;
13012;SDS011;22580;57.670;12.006;2023-04-08T02:59:41;0.50;;;0.50;;
13012;SDS011;22580;57.670;12.006;2023-04-08T03:02:07;1.20;;;0.40;;
13012;SDS011;22580;57.670;12.006;2023-04-08T03:04:34;0.60;;;0.60;;
13012;SDS011;22580;57.670;12.006;2023-04-08T03:07:01;0.60;;;0.60;;
13012;SDS011;22580;57.670;12.006;2023-04-08T03:09:30;1.00;;;1.00;;
13012;SDS011;22580;57.670;12.006;2023-04-08T03:11:56;0.70;;;0.70;;
13012;SDS011;22580;57.670;12.006;2023-04-08T03:14:23;0.60;;;0.60;;
13012;SDS011;22580;57.670;12.006;2023-04-08T03:16:50;0.60;;;0.60;;
13012;SDS011;22580;57.670;12.006;2023-04-08T03:19:17;0.60;;;0.60;;
13012;SDS011;22580;57.670;12.006;2023-04-08T03:21:44;0.60;;;0.60;;
13012;SDS011;22580;57.670;12.006;2023-04-08T03:24:12;0.60;;;0.60;;
13012;SDS011;22580;57.670;12.006;2023-04-08T03:26:40;0.60;;;0.60;;
13012;SDS011;22580;57.670;12.006;2023-04-08T03:29:07;0.50;;;0.50;;
13012;SDS011;22580;57.670;12.006;2023-04-08T03:31:34;0.60;;;0.60;;
13012;SDS011;22580;57.670;12.006;2023-04-08T03:34:01;0.40;;;0.40;;
13012;SDS011;22580;57.670;12.006;2023-04-08T03:36:28;0.47;;;0.47;;
13012;SDS011;22580;57.670;12.006;2023-04-08T03:38:56;0.50;;;0.50;;
13012;SDS011;22580;57.670;12.006;2023-04-08T03:41:23;0.87;;;0.87;;
13012;SDS011;22580;57.670;12.006;2023-04-08T03:43:51;0.60;;;0.60;;
13012;SDS011;22580;57.670;12.006;2023-04-08T03:46:18;0.80;;;0.80;;
13012;SDS011;22580;57.670;12.006;2023-04-08T03:48:46;0.90;;;0.90;;
13012;SDS011;22580;57.670;12.006;2023-04-08T03:51:13;0.80;;;0.80;;
13012;SDS011;22580;57.670;12.006;2023-04-08T03:53:40;0.57;;;0.57;;
13012;SDS011;22580;57.670;12.006;2023-04-08T03:56:07;1.00;;;0.80;;
13012;SDS011;22580;57.670;12.006;2023-04-08T03:58:34;0.80;;;0.80;;
13012;SDS011;22580;57.670;12.006;2023-04-08T04:01:02;0.73;;;0.73;;
13012;SDS011;22580;57.670;12.006;2023-04-08T04:03:30;0.80;;;0.80;;
13012;SDS011;22580;57.670;12.006;2023-04-08T04:05:57;0.67;;;0.67;;
13012;SDS011;22580;57.670;12.006;2023-04-08T04:08:23;0.87;;;0.87;;
13012;SDS011;22580;57.670;12.006;2023-04-08T04:10:50;0.60;;;0.60;;
13012;SDS011;22580;57.670;12.006;2023-04-08T04:13:17;0.60;;;0.60;;
13012;SDS011;22580;57.670;12.006;2023-04-08T04:15:46;1.23;;;0.90;;
13012;SDS011;22580;57.670;12.006;2023-04-08T04:18:14;0.60;;;0.60;;
13012;SDS011;22580;57.670;12.006;2023-04-08T04:20:41;0.50;;;0.50;;
13012;SDS011;22580;57.670;12.006;2023-04-08T04:23:08;0.60;;;0.60;;
13012;SDS011;22580;57.670;12.006;2023-04-08T04:25:35;0.80;;;0.80;;
13012;SDS011;22580;57.670;12.006;2023-04-08T04:28:03;0.80;;;0.80;;
13012;SDS011;22580;57.670;12.006;2023-04-08T04:30:30;0.57;;;0.57;;
13012;SDS011;22580;57.670;12.006;2023-04-08T04:32:57;0.80;;;0.80;;
13012;SDS011;22580;57.670;12.006;2023-04-08T04:35:34;1.30;;;1.20;;
13012;SDS011;22580;57.670;12.006;2023-04-08T04:38:01;0.70;;;0.70;;
13012;SDS011;22580;57.670;12.006;2023-04-08T04:40:29;1.30;;;1.20;;
13012;SDS011;22580;57.670;12.006;2023-04-08T04:42:56;1.10;;;1.03;;
13012;SDS011;22580;57.670;12.006;2023-04-08T04:45:23;0.73;;;0.73;;
13012;SDS011;22580;57.670;12.006;2023-04-08T04:47:50;0.80;;;0.80;;
13012;SDS011;22580;57.670;12.006;2023-04-08T04:50:17;1.03;;;1.03;;
13012;SDS011;22580;57.670;12.006;2023-04-08T04:52:46;0.90;;;0.90;;
13012;SDS011;22580;57.670;12.006;2023-04-08T04:55:13;0.70;;;0.70;;
13012;SDS011;22580;57.670;12.006;2023-04-08T04:57:40;1.23;;;1.10;;
13012;SDS011;22580;57.670;12.006;2023-04-08T05:00:08;0.80;;;0.80;;
13012;SDS011;22580;57.670;12.006;2023-04-08T05:02:36;1.20;;;1.10;;
13012;SDS011;22580;57.670;12.006;2023-04-08T05:05:03;0.93;;;0.93;;
13012;SDS011;22580;57.670;12.006;2023-04-08T05:07:30;1.47;;;1.00;;
13012;SDS011;22580;57.670;12.006;2023-04-08T05:10:02;0.70;;;0.70;;
13012;SDS011;22580;57.670;12.006;2023-04-08T05:12:29;0.70;;;0.70;;
13012;SDS011;22580;57.670;12.006;2023-04-08T05:14:56;0.50;;;0.50;;
13012;SDS011;22580;57.670;12.006;2023-04-08T05:17:23;0.80;;;0.80;;
13012;SDS011;22580;57.670;12.006;2023-04-08T05:19:50;0.83;;;0.83;;
13012;SDS011;22580;57.670;12.006;2023-04-08T05:22:18;0.73;;;0.73;;
13012;SDS011;22580;57.670;12.006;2023-04-08T05:24:44;0.70;;;0.70;;
13012;SDS011;22580;57.670;12.006;2023-04-08T05:27:13;1.10;;;1.00;;
13012;SDS011;22580;57.670;12.006;2023-04-08T05:29:40;0.90;;;0.90;;
13012;SDS011;22580;57.670;12.006;2023-04-08T05:32:07;1.10;;;1.00;;
13012;SDS011;22580;57.670;12.006;2023-04-08T05:34:33;1.70;;;0.80;;
13012;SDS011;22580;57.670;12.006;2023-04-08T05:37:00;1.20;;;1.10;;
13012;SDS011;22580;57.670;12.006;2023-04-08T05:39:27;1.10;;;1.10;;
13012;SDS011;22580;57.670;12.006;2023-04-08T05:41:55;1.00;;;1.00;;
13012;SDS011;22580;57.670;12.006;2023-04-08T05:44:25;0.83;;;0.83;;
13012;SDS011;22580;57.670;12.006;2023-04-08T05:46:52;0.90;;;0.90;;
13012;SDS011;22580;57.670;12.006;2023-04-08T05:49:19;0.97;;;0.97;;
13012;SDS011;22580;57.670;12.006;2023-04-08T05:51:46;1.10;;;1.10;;
13012;SDS011;22580;57.670;12.006;2023-04-08T05:54:13;0.87;;;0.87;;
13012;SDS011;22580;57.670;12.006;2023-04-08T05:56:40;0.90;;;0.90;;
13012;SDS011;22580;57.670;12.006;2023-04-08T05:59:07;1.40;;;1.30;;
13012;SDS011;22580;57.670;12.006;2023-04-08T06:01:35;1.33;;;1.17;;
13012;SDS011;22580;57.670;12.006;2023-04-08T06:04:02;1.00;;;1.00;;
13012;SDS011;22580;57.670;12.006;2023-04-08T06:06:29;0.90;;;0.90;;
13012;SDS011;22580;57.670;12.006;2023-04-08T06:08:56;0.87;;;0.87;;
13012;SDS011;22580;57.670;12.006;2023-04-08T06:11:22;1.00;;;0.90;;
13012;SDS011;22580;57.670;12.006;2023-04-08T06:13:50;0.93;;;0.93;;
13012;SDS011;22580;57.670;12.006;2023-04-08T06:16:16;1.03;;;1.00;;
13012;SDS011;22580;57.670;12.006;2023-04-08T06:18:45;1.17;;;1.07;;
13012;SDS011;22580;57.670;12.006;2023-04-08T06:21:12;0.80;;;0.80;;
13012;SDS011;22580;57.670;12.006;2023-04-08T06:23:38;1.40;;;1.30;;
13012;SDS011;22580;57.670;12.006;2023-04-08T06:26:05;1.30;;;1.20;;
13012;SDS011;22580;57.670;12.006;2023-04-08T06:28:32;1.23;;;1.10;;
13012;SDS011;22580;57.670;12.006;2023-04-08T06:30:59;1.00;;;1.00;;
13012;SDS011;22580;57.670;12.006;2023-04-08T06:33:26;0.67;;;0.67;;
13012;SDS011;22580;57.670;12.006;2023-04-08T06:36:01;0.80;;;0.80;;
13012;SDS011;22580;57.670;12.006;2023-04-08T06:38:29;0.70;;;0.70;;
13012;SDS011;22580;57.670;12.006;2023-04-08T06:41:00;0.73;;;0.73;;
13012;SDS011;22580;57.670;12.006;2023-04-08T06:43:27;0.83;;;0.83;;
13012;SDS011;22580;57.670;12.006;2023-04-08T06:45:54;1.00;;;0.90;;
13012;SDS011;22580;57.670;12.006;2023-04-08T06:48:22;1.00;;;1.00;;
13012;SDS011;22580;57.670;12.006;2023-04-08T06:50:52;0.90;;;0.90;;
13012;SDS011;22580;57.670;12.006;2023-04-08T06:53:22;1.13;;;1.03;;
13012;SDS011;22580;57.670;12.006;2023-04-08T06:55:51;1.20;;;1.10;;
13012;SDS011;22580;57.670;12.006;2023-04-08T06:58:18;0.90;;;0.90;;
13012;SDS011;22580;57.670;12.006;2023-04-08T07:00:45;1.10;;;1.10;;
13012;SDS011;22580;57.670;12.006;2023-04-08T07:03:12;1.00;;;1.00;;
13012;SDS011;22580;57.670;12.006;2023-04-08T07:05:44;0.90;;;0.90;;
13012;SDS011;22580;57.670;12.006;2023-04-08T07:08:15;1.30;;;1.20;;
13012;SDS011;22580;57.670;12.006;2023-04-08T07:10:43;1.33;;;1.23;;
13012;SDS011;22580;57.670;12.006;2023-04-08T07:13:10;0.90;;;0.90;;
13012;SDS011;22580;57.670;12.006;2023-04-08T07:15:37;1.10;;;1.00;;
13012;SDS011;22580;57.670;12.006;2023-04-08T07:18:04;0.93;;;0.93;;
13012;SDS011;22580;57.670;12.006;2023-04-08T07:20:31;1.20;;;1.10;;
13012;SDS011;22580;57.670;12.006;2023-04-08T07:23:02;1.40;;;1.30;;
13012;SDS011;22580;57.670;12.006;2023-04-08T07:25:29;1.40;;;1.30;;
13012;SDS011;22580;57.670;12.006;2023-04-08T07:27:57;1.20;;;1.10;;
13012;SDS011;22580;57.670;12.006;2023-04-08T07:30:24;1.17;;;1.10;;
13012;SDS011;22580;57.670;12.006;2023-04-08T07:32:51;0.80;;;0.80;;
13012;SDS011;22580;57.670;12.006;2023-04-08T07:35:19;1.03;;;0.97;;
13012;SDS011;22580;57.670;12.006;2023-04-08T07:37:48;1.97;;;1.10;;
13012;SDS011;22580;57.670;12.006;2023-04-08T07:40:17;1.00;;;1.00;;
13012;SDS011;22580;57.670;12.006;2023-04-08T07:42:44;1.33;;;1.23;;
13012;SDS011;22580;57.670;12.006;2023-04-08T07:45:13;1.13;;;1.00;;
13012;SDS011;22580;57.670;12.006;2023-04-08T07:47:40;0.70;;;0.70;;
13012;SDS011;22580;57.670;12.006;2023-04-08T07:50:07;0.83;;;0.83;;
13012;SDS011;22580;57.670;12.006;2023-04-08T07:52:34;1.00;;;1.00;;
13012;SDS011;22580;57.670;12.006;2023-04-08T07:55:01;1.00;;;0.90;;
13012;SDS011;22580;57.670;12.006;2023-04-08T07:57:30;0.80;;;0.80;;
13012;SDS011;22580;57.670;12.006;2023-04-08T07:59:56;0.87;;;0.87;;
13012;SDS011;22580;57.670;12.006;2023-04-08T08:02:25;0.93;;;0.87;;
13012;SDS011;22580;57.670;12.006;2023-04-08T08:04:52;0.93;;;0.80;;
13012;SDS011;22580;57.670;12.006;2023-04-08T08:07:19;0.60;;;0.60;;
13012;SDS011;22580;57.670;12.006;2023-04-08T08:09:46;0.80;;;0.70;;
13012;SDS011;22580;57.670;12.006;2023-04-08T08:12:13;1.00;;;1.00;;
13012;SDS011;22580;57.670;12.006;2023-04-08T08:14:40;0.70;;;0.70;;
13012;SDS011;22580;57.670;12.006;2023-04-08T08:17:07;1.00;;;1.00;;
13012;SDS011;22580;57.670;12.006;2023-04-08T08:19:35;1.57;;;1.47;;
13012;SDS011;22580;57.670;12.006;2023-04-08T08:22:02;1.33;;;1.23;;
13012;SDS011;22580;57.670;12.006;2023-04-08T08:24:30;1.00;;;1.00;;
13012;SDS011;22580;57.670;12.006;2023-04-08T08:26:57;1.63;;;1.40;;
13012;SDS011;22580;57.670;12.006;2023-04-08T08:29:23;1.67;;;1.30;;
13012;SDS011;22580;57.670;12.006;2023-04-08T08:31:50;1.47;;;1.37;;
13012;SDS011;22580;57.670;12.006;2023-04-08T08:34:17;1.07;;;1.07;;
13012;SDS011;22580;57.670;12.006;2023-04-08T08:36:47;2.57;;;1.47;;
13012;SDS011;22580;57.670;12.006;2023-04-08T08:39:13;1.53;;;1.43;;
13012;SDS011;22580;57.670;12.006;2023-04-08T08:41:40;1.70;;;1.60;;
13012;SDS011;22580;57.670;12.006;2023-04-08T08:44:07;1.30;;;1.20;;
13012;SDS011;22580;57.670;12.006;2023-04-08T08:46:35;1.17;;;1.07;;
13012;SDS011;22580;57.670;12.006;2023-04-08T08:49:02;1.33;;;1.20;;
13012;SDS011;22580;57.670;12.006;2023-04-08T08:51:30;0.90;;;0.90;;
13012;SDS011;22580;57.670;12.006;2023-04-08T08:54:02;1.30;;;1.20;;
13012;SDS011;22580;57.670;12.006;2023-04-08T08:56:42;1.27;;;1.17;;
13012;SDS011;22580;57.670;12.006;2023-04-08T08:59:09;1.17;;;1.07;;
13012;SDS011;22580;57.670;12.006;2023-04-08T09:01:37;1.10;;;1.00;;
13012;SDS011;22580;57.670;12.006;2023-04-08T09:04:06;1.60;;;1.50;;
13012;SDS011;22580;57.670;12.006;2023-04-08T09:06:39;1.30;;;1.20;;
13012;SDS011;22580;57.670;12.006;2023-04-08T09:09:08;1.93;;;1.80;;
13012;SDS011;22580;57.670;12.006;2023-04-08T09:11:38;1.67;;;1.57;;
13012;SDS011;22580;57.670;12.006;2023-04-08T09:14:16;1.60;;;1.30;;
13012;SDS011;22580;57.670;12.006;2023-04-08T09:16:44;1.70;;;1.60;;
13012;SDS011;22580;57.670;12.006;2023-04-08T09:19:11;2.90;;;1.67;;
13012;SDS011;22580;57.670;12.006;2023-04-08T09:21:38;1.87;;;1.60;;
13012;SDS011;22580;57.670;12.006;2023-04-08T09:24:07;1.70;;;1.60;;
13012;SDS011;22580;57.670;12.006;2023-04-08T09:26:35;1.43;;;1.33;;
13012;SDS011;22580;57.670;12.006;2023-04-08T09:29:03;1.17;;;1.10;;
13012;SDS011;22580;57.670;12.006;2023-04-08T09:31:32;1.40;;;1.30;;
13012;SDS011;22580;57.670;12.006;2023-04-08T09:34:00;1.30;;;1.20;;
13012;SDS011;22580;57.670;12.006;2023-04-08T09:36:35;1.90;;;1.10;;
13012;SDS011;22580;57.670;12.006;2023-04-08T09:39:03;1.43;;;1.20;;
13012;SDS011;22580;57.670;12.006;2023-04-08T09:41:33;1.00;;;1.00;;
13012;SDS011;22580;57.670;12.006;2023-04-08T09:44:02;1.13;;;1.10;;
13012;SDS011;22580;57.670;12.006;2023-04-08T09:46:32;1.30;;;1.20;;
13012;SDS011;22580;57.670;12.006;2023-04-08T09:49:06;1.50;;;1.40;;
13012;SDS011;22580;57.670;12.006;2023-04-08T09:51:39;0.90;;;0.90;;
13012;SDS011;22580;57.670;12.006;2023-04-08T09:54:12;1.23;;;1.13;;
13012;SDS011;22580;57.670;12.006;2023-04-08T09:56:43;1.40;;;1.27;;
13012;SDS011;22580;57.670;12.006;2023-04-08T09:59:14;1.27;;;1.17;;
13012;SDS011;22580;57.670;12.006;2023-04-08T10:01:49;1.10;;;1.10;;
13012;SDS011;22580;57.670;12.006;2023-04-08T10:04:19;1.47;;;1.37;;
13012;SDS011;22580;57.670;12.006;2023-04-08T10:06:49;1.50;;;1.40;;
13012;SDS011;22580;57.670;12.006;2023-04-08T10:09:20;1.60;;;1.50;;
13012;SDS011;22580;57.670;12.006;2023-04-08T10:11:49;1.50;;;1.40;;
13012;SDS011;22580;57.670;12.006;2023-04-08T10:14:17;1.90;;;1.73;;
13012;SDS011;22580;57.670;12.006;2023-04-08T10:16:46;1.40;;;1.30;;
13012;SDS011;22580;57.670;12.006;2023-04-08T10:27:59;1.20;;;1.10;;
13012;SDS011;22580;57.670;12.006;2023-04-08T10:33:10;1.40;;;1.30;;
13012;SDS011;22580;57.670;12.006;2023-04-08T10:35:41;1.73;;;1.63;;
13012;SDS011;22580;57.670;12.006;2023-04-08T10:38:11;2.70;;;2.40;;
13012;SDS011;22580;57.670;12.006;2023-04-08T10:40:39;1.70;;;1.60;;
13012;SDS011;22580;57.670;12.006;2023-04-08T10:43:09;1.80;;;1.70;;
13012;SDS011;22580;57.670;12.006;2023-04-08T10:45:40;2.00;;;1.60;;
13012;SDS011;22580;57.670;12.006;2023-04-08T10:48:11;1.80;;;1.60;;
13012;SDS011;22580;57.670;12.006;2023-04-08T10:50:39;1.77;;;1.67;;
13012;SDS011;22580;57.670;12.006;2023-04-08T10:53:09;1.27;;;1.27;;
13012;SDS011;22580;57.670;12.006;2023-04-08T10:55:36;2.03;;;1.93;;
13012;SDS011;22580;57.670;12.006;2023-04-08T10:58:08;2.10;;;1.80;;
13012;SDS011;22580;57.670;12.006;2023-04-08T11:00:37;2.30;;;2.10;;
13012;SDS011;22580;57.670;12.006;2023-04-08T11:03:05;1.63;;;1.50;;
13012;SDS011;22580;57.670;12.006;2023-04-08T11:05:34;1.57;;;1.47;;
13012;SDS011;22580;57.670;12.006;2023-04-08T11:08:03;1.70;;;1.60;;
13012;SDS011;22580;57.670;12.006;2023-04-08T11:10:33;1.60;;;1.50;;
13012;SDS011;22580;57.670;12.006;2023-04-08T11:13:05;2.90;;;2.60;;
13012;SDS011;22580;57.670;12.006;2023-04-08T11:15:35;2.33;;;2.13;;
13012;SDS011;22580;57.670;12.006;2023-04-08T11:18:03;2.87;;;2.30;;
13012;SDS011;22580;57.670;12.006;2023-04-08T11:20:31;2.20;;;2.00;;
13012;SDS011;22580;57.670;12.006;2023-04-08T11:23:01;2.00;;;1.90;;
13012;SDS011;22580;57.670;12.006;2023-04-08T11:25:28;2.00;;;1.80;;
13012;SDS011;22580;57.670;12.006;2023-04-08T11:27:56;2.00;;;1.80;;
13012;SDS011;22580;57.670;12.006;2023-04-08T11:30:25;1.80;;;1.70;;
13012;SDS011;22580;57.670;12.006;2023-04-08T11:32:54;1.80;;;1.70;;
13012;SDS011;22580;57.670;12.006;2023-04-08T11:35:27;1.90;;;1.80;;
13012;SDS011;22580;57.670;12.006;2023-04-08T11:37:55;3.08;;;2.70;;
13012;SDS011;22580;57.670;12.006;2023-04-08T11:40:22;2.60;;;2.40;;
13012;SDS011;22580;57.670;12.006;2023-04-08T11:42:50;2.20;;;2.00;;
13012;SDS011;22580;57.670;12.006;2023-04-08T11:45:18;2.40;;;2.20;;
13012;SDS011;22580;57.670;12.006;2023-04-08T11:47:55;2.25;;;2.05;;
13012;SDS011;22580;57.670;12.006;2023-04-08T11:50:23;2.67;;;2.28;;
13012;SDS011;22580;57.670;12.006;2023-04-08T11:52:52;2.15;;;2.00;;
13012;SDS011;22580;57.670;12.006;2023-04-08T11:55:23;1.88;;;1.77;;
13012;SDS011;22580;57.670;12.006;2023-04-08T11:57:53;2.10;;;2.00;;
13012;SDS011;22580;57.670;12.006;2023-04-08T12:00:21;1.95;;;1.85;;
13012;SDS011;22580;57.670;12.006;2023-04-08T12:02:53;2.70;;;2.50;;
13012;SDS011;22580;57.670;12.006;2023-04-08T12:05:20;2.30;;;2.13;;
13012;SDS011;22580;57.670;12.006;2023-04-08T12:07:47;2.17;;;1.98;;
13012;SDS011;22580;57.670;12.006;2023-04-08T12:10:14;2.30;;;2.10;;
13012;SDS011;22580;57.670;12.006;2023-04-08T12:12:42;2.25;;;2.05;;
13012;SDS011;22580;57.670;12.006;2023-04-08T12:15:09;1.80;;;1.70;;
13012;SDS011;22580;57.670;12.006;2023-04-08T12:17:37;1.85;;;1.75;;
13012;SDS011;22580;57.670;12.006;2023-04-08T12:20:05;1.92;;;1.73;;
13012;SDS011;22580;57.670;12.006;2023-04-08T12:22:33;1.98;;;1.80;;
13012;SDS011;22580;57.670;12.006;2023-04-08T12:25:01;2.95;;;2.65;;
13012;SDS011;22580;57.670;12.006;2023-04-08T12:27:28;2.58;;;2.38;;
13012;SDS011;22580;57.670;12.006;2023-04-08T12:29:55;2.30;;;2.10;;
13012;SDS011;22580;57.670;12.006;2023-04-08T12:32:23;1.67;;;1.58;;
13012;SDS011;22580;57.670;12.006;2023-04-08T12:34:52;1.80;;;1.70;;
13012;SDS011;22580;57.670;12.006;2023-04-08T12:37:21;2.60;;;2.28;;
13012;SDS011;22580;57.670;12.006;2023-04-08T12:39:50;2.30;;;2.10;;
13012;SDS011;22580;57.670;12.006;2023-04-08T12:42:33;2.15;;;2.03;;
13012;SDS011;22580;57.670;12.006;2023-04-08T12:45:08;2.00;;;1.90;;
13012;SDS011;22580;57.670;12.006;2023-04-08T12:47:35;1.77;;;1.67;;
13012;SDS011;22580;57.670;12.006;2023-04-08T12:50:03;2.78;;;2.58;;
13012;SDS011;22580;57.670;12.006;2023-04-08T12:52:32;2.40;;;2.20;;
13012;SDS011;22580;57.670;12.006;2023-04-08T12:55:00;2.85;;;2.60;;
13012;SDS011;22580;57.670;12.006;2023-04-08T12:57:27;2.80;;;2.60;;
13012;SDS011;22580;57.670;12.006;2023-04-08T12:59:53;2.45;;;2.25;;
13012;SDS011;22580;57.670;12.006;2023-04-08T13:02:21;2.28;;;2.08;;
13012;SDS011;22580;57.670;12.006;2023-04-08T13:04:49;2.53;;;2.33;;
13012;SDS011;22580;57.670;12.006;2023-04-08T13:07:17;2.00;;;1.90;;
13012;SDS011;22580;57.670;12.006;2023-04-08T13:09:45;2.22;;;2.10;;
13012;SDS011;22580;57.670;12.006;2023-04-08T13:12:12;2.33;;;2.13;;
13012;SDS011;22580;57.670;12.006;2023-04-08T13:14:40;2.50;;;2.30;;
13012;SDS011;22580;57.670;12.006;2023-04-08T13:17:08;2.25;;;2.05;;
13012;SDS011;22580;57.670;12.006;2023-04-08T13:19:35;2.22;;;2.03;;
13012;SDS011;22580;57.670;12.006;2023-04-08T13:22:02;2.45;;;2.25;;
13012;SDS011;22580;57.670;12.006;2023-04-08T13:24:29;2.58;;;2.38;;
13012;SDS011;22580;57.670;12.006;2023-04-08T13:27:00;2.28;;;2.08;;
13012;SDS011;22580;57.670;12.006;2023-04-08T13:29:27;1.73;;;1.63;;
13012;SDS011;22580;57.670;12.006;2023-04-08T13:31:54;2.05;;;1.95;;
13012;SDS011;22580;57.670;12.006;2023-04-08T13:34:22;1.90;;;1.80;;
13012;SDS011;22580;57.670;12.006;2023-04-08T13:36:49;2.60;;;2.38;;
13012;SDS011;22580;57.670;12.006;2023-04-08T13:39:16;2.10;;;1.90;;
13012;SDS011;22580;57.670;12.006;2023-04-08T13:41:43;2.85;;;2.65;;
13012;SDS011;22580;57.670;12.006;2023-04-08T13:44:11;8.60;;;7.75;;
13012;SDS011;22580;57.670;12.006;2023-04-08T13:46:39;6.85;;;6.25;;
13012;SDS011;22580;57.670;12.006;2023-04-08T13:49:06;4.88;;;4.40;;
13012;SDS011;22580;57.670;12.006;2023-04-08T13:51:33;2.78;;;2.58;;
13012;SDS011;22580;57.670;12.006;2023-04-08T13:54:00;6.20;;;5.70;;
13012;SDS011;22580;57.670;12.006;2023-04-08T13:56:27;4.32;;;3.92;;
13012;SDS011;22580;57.670;12.006;2023-04-08T13:58:54;4.60;;;4.20;;
13012;SDS011;22580;57.670;12.006;2023-04-08T14:01:32;3.33;;;3.10;;
13012;SDS011;22580;57.670;12.006;2023-04-08T14:03:59;2.53;;;2.42;;
13012;SDS011;22580;57.670;12.006;2023-04-08T14:06:26;2.00;;;1.90;;
13012;SDS011;22580;57.670;12.006;2023-04-08T14:08:53;2.42;;;2.22;;
13012;SDS011;22580;57.670;12.006;2023-04-08T14:11:20;2.80;;;2.38;;
13012;SDS011;22580;57.670;12.006;2023-04-08T14:13:47;3.10;;;2.90;;
13012;SDS011;22580;57.670;12.006;2023-04-08T14:16:15;2.47;;;2.28;;
13012;SDS011;22580;57.670;12.006;2023-04-08T14:18:45;2.25;;;2.08;;
13012;SDS011;22580;57.670;12.006;2023-04-08T14:21:12;2.10;;;2.00;;
13012;SDS011;22580;57.670;12.006;2023-04-08T14:23:39;2.65;;;2.40;;
13012;SDS011;22580;57.670;12.006;2023-04-08T14:26:06;1.98;;;1.88;;
13012;SDS011;22580;57.670;12.006;2023-04-08T14:28:33;2.58;;;2.33;;
13012;SDS011;22580;57.670;12.006;2023-04-08T14:31:00;3.17;;;2.42;;
13012;SDS011;22580;57.670;12.006;2023-04-08T14:33:28;2.50;;;2.30;;
13012;SDS011;22580;57.670;12.006;2023-04-08T14:35:58;2.20;;;2.10;;
13012;SDS011;22580;57.670;12.006;2023-04-08T14:38:25;2.25;;;2.10;;
13012;SDS011;22580;57.670;12.006;2023-04-08T14:40:52;1.55;;;1.45;;
13012;SDS011;22580;57.670;12.006;2023-04-08T14:43:19;2.33;;;2.10;;
13012;SDS011;22580;57.670;12.006;2023-04-08T14:45:47;2.00;;;1.90;;
13012;SDS011;22580;57.670;12.006;2023-04-08T14:48:15;1.70;;;1.60;;
13012;SDS011;22580;57.670;12.006;2023-04-08T14:50:42;1.60;;;1.50;;